San Antonio, Texas
Traffic Map
Current Weather Conditions
San Antonio, Texas
Clear
Clear
17°
Feels Like: 17°
Wind Chill: 17° Ceiling: Unl
Heat Index: 17° Visibility: 10mi
Dew Point: 14° Wind: 3mph
Humidity: 85% Direction: 20° (NNE)
Pressure: 30.02in Gusts: 0mph
Raw Report DataKSKF 211158Z AUTO 02003KT 10SM CLR 17/14 A3002 RMK AO2 SLP160 T01680143 10213 20162 52007 $
Traffic Incident Summary
Active as of:
Severity:
Category:
InformationThere was an issue retrieving the traffic information for this location. Please try a different location or try again shortly.
Advertisements
Track Severe Weather on mobile